»·PEaware :: N386SP KEMT-KSBA

N386SP :: KEMT-KSBA

FLIGHT INFORMATION

Flight Status: Arrived
Operator: Privately registered:
United States
More flights under this callsign
Pilot: Matt W. (10744)
Aircraft: CESSNA 172 SKYHAWK
(C172)
More flights by this aircraft type
Origin: KEMT El Monte
United States
Destination: KSBA Santa Barbara Mun
United States
More flights between these airports :: More routes between these airports
Route: +PDZ V186 DEANO V27 KWANG
File this flight plan on PilotEdge
Remarks:
Altitude:
(Current/Filed)
6,000ft
Speed:
(Current/Filed)
120kts
Departed: 26-Aug-18 03:04 PM
Arrived: 26-Aug-18 04:08 PM
Distance/Time
Traveled:
92nm/1:04
Distance/Time
To Go:
Arrived

Flight Plot

Page will automatically refresh every two minutes.


Map Options




Map Legend


Flown Route
Filed Route
Departure Airport
Arrival Airport
Navaid (VOR, NDB)
Fix

Horizontal Profiles

Position Reports

Time Latitude Longitude Heading Altitude Ground
Speed
26-Aug-18 14:21 34.086053 -118.033304 24 299ft 0kts
26-Aug-18 14:22 34.086053 -118.033304 24 299ft 0kts
26-Aug-18 14:23 34.086053 -118.033304 24 299ft 0kts
26-Aug-18 14:24 34.086053 -118.033304 24 299ft 0kts
26-Aug-18 14:25 34.086053 -118.033304 24 299ft 0kts
26-Aug-18 14:26 34.086053 -118.033304 24 299ft 0kts
26-Aug-18 14:27 34.086053 -118.033304 24 299ft 0kts
26-Aug-18 14:28 34.086053 -118.033304 24 299ft 0kts
26-Aug-18 14:29 34.086053 -118.033304 24 299ft 0kts
26-Aug-18 14:30 34.086053 -118.033304 24 299ft 0kts
26-Aug-18 14:31 34.086053 -118.033304 24 299ft 0kts
26-Aug-18 14:32 34.086053 -118.033304 24 299ft 0kts
26-Aug-18 14:33 34.088647 -118.032270 295 299ft 0kts
26-Aug-18 14:34 34.088647 -118.032270 295 299ft 0kts
26-Aug-18 14:35 34.088647 -118.032270 295 299ft 0kts
26-Aug-18 14:36 34.088647 -118.032270 295 299ft 0kts
26-Aug-18 14:37 34.088647 -118.032270 295 299ft 0kts
26-Aug-18 14:38 34.088647 -118.032270 295 299ft 0kts
26-Aug-18 14:39 34.088647 -118.032270 295 299ft 0kts
26-Aug-18 14:40 34.088647 -118.032270 295 299ft 0kts
26-Aug-18 14:41 34.088647 -118.032270 295 299ft 0kts
26-Aug-18 14:42 34.088647 -118.032270 295 299ft 0kts
26-Aug-18 14:43 34.088647 -118.032270 295 299ft 0kts
26-Aug-18 14:44 34.088647 -118.032270 295 299ft 0kts
26-Aug-18 14:45 34.088647 -118.032270 295 299ft 0kts
26-Aug-18 14:46 34.088647 -118.032270 295 299ft 0kts
26-Aug-18 14:47 34.088647 -118.032270 295 299ft 0kts
26-Aug-18 14:48 34.088647 -118.032270 295 299ft 0kts
26-Aug-18 14:49 34.088647 -118.032270 295 299ft 0kts
26-Aug-18 14:50 34.088647 -118.032270 295 299ft 0kts
26-Aug-18 14:51 34.088647 -118.032270 295 299ft 0kts
26-Aug-18 14:52 34.088647 -118.032270 295 299ft 0kts
26-Aug-18 14:53 34.088647 -118.032270 295 299ft 0kts
26-Aug-18 14:54 34.088647 -118.032270 295 299ft 0kts
26-Aug-18 14:55 34.088647 -118.032270 295 299ft 0kts
26-Aug-18 14:56 34.088647 -118.032270 295 299ft 0kts
26-Aug-18 14:57 34.088647 -118.032270 295 299ft 0kts
26-Aug-18 14:58 34.088647 -118.032270 295 299ft 0kts
26-Aug-18 14:59 34.088647 -118.032270 295 299ft 0kts
26-Aug-18 15:00 34.088647 -118.032270 295 299ft 0kts
26-Aug-18 15:01 34.088647 -118.032270 295 299ft 0kts
26-Aug-18 15:02 34.088778 -118.032401 351 299ft 4kts
26-Aug-18 15:03 34.090735 -118.031618 306 299ft 2kts
26-Aug-18 15:04 34.090796 -118.031749 296 299ft 6kts
26-Aug-18 15:05 34.078816 -118.038206 203 631ft 70kts
26-Aug-18 15:06 34.060522 -118.046309 196 1299ft 70kts
26-Aug-18 15:07 34.053284 -118.032786 79 1877ft 80kts
26-Aug-18 15:08 34.057029 -118.006926 78 2419ft 84kts
26-Aug-18 15:09 34.061758 -117.978435 96 2905ft 87kts
26-Aug-18 15:10 34.071836 -117.959279 329 3388ft 86kts
26-Aug-18 15:11 34.081056 -117.983688 281 3856ft 81kts
26-Aug-18 15:12 34.087722 -118.009811 281 4306ft 81kts
26-Aug-18 15:13 34.094400 -118.035934 281 4730ft 81kts
26-Aug-18 15:14 34.101102 -118.062125 281 5130ft 81kts
26-Aug-18 15:15 34.107775 -118.088230 281 5508ft 81kts
26-Aug-18 15:16 34.114377 -118.114084 281 5879ft 79kts
26-Aug-18 15:17 34.121659 -118.142603 283 5977ft 102kts
26-Aug-18 15:18 34.130616 -118.177399 283 5976ft 107kts
26-Aug-18 15:19 34.138943 -118.210001 283 5978ft 98kts
26-Aug-18 15:20 34.146758 -118.240824 283 5974ft 95kts
26-Aug-18 15:21 34.154492 -118.269943 298 5970ft 94kts
26-Aug-18 15:22 34.163808 -118.298231 284 5973ft 91kts
26-Aug-18 15:23 34.172099 -118.326136 286 5973ft 91kts
26-Aug-18 15:24 34.180988 -118.354940 285 5975ft 91kts
26-Aug-18 15:25 34.189906 -118.383703 285 5975ft 91kts
26-Aug-18 15:26 34.198903 -118.412746 285 5976ft 93kts
26-Aug-18 15:27 34.208034 -118.442225 285 5976ft 94kts
26-Aug-18 15:28 34.217300 -118.472174 285 5976ft 95kts
26-Aug-18 15:29 34.225280 -118.497346 287 5975ft 97kts
26-Aug-18 15:30 34.237408 -118.532601 287 5973ft 97kts
26-Aug-18 15:31 34.246562 -118.559333 288 5976ft 108kts
26-Aug-18 15:32 34.260404 -118.599782 288 5983ft 112kts
26-Aug-18 15:33 34.270310 -118.628786 288 5989ft 111kts
26-Aug-18 15:34 34.281863 -118.662586 287 5996ft 110kts
26-Aug-18 15:35 34.293442 -118.696430 287 6002ft 108kts
26-Aug-18 15:36 34.304871 -118.729895 287 6007ft 107kts
26-Aug-18 15:37 34.316226 -118.763173 287 6012ft 106kts
26-Aug-18 15:38 34.327554 -118.796403 287 5989ft 107kts
26-Aug-18 15:39 34.338857 -118.829583 287 5989ft 106kts
26-Aug-18 15:40 34.350139 -118.862749 287 5988ft 106kts
26-Aug-18 15:41 34.354868 -118.896949 263 5987ft 107kts
26-Aug-18 15:42 34.352489 -118.933295 263 5983ft 108kts
26-Aug-18 15:43 34.349882 -118.969870 263 5980ft 110kts
26-Aug-18 15:44 34.347216 -119.006759 264 5976ft 105kts
26-Aug-18 15:45 34.344618 -119.042235 264 5974ft 106kts
26-Aug-18 15:46 34.341998 -119.077676 264 5974ft 106kts
26-Aug-18 15:47 34.339360 -119.113187 264 5974ft 105kts
26-Aug-18 15:48 34.336721 -119.148559 264 5973ft 105kts
26-Aug-18 15:49 34.334072 -119.183948 264 5973ft 105kts
26-Aug-18 15:50 34.331466 -119.218811 264 5973ft 103kts
26-Aug-18 15:51 34.328903 -119.252953 264 5973ft 100kts
26-Aug-18 15:52 34.326464 -119.286253 264 5973ft 98kts
26-Aug-18 15:53 34.324055 -119.318576 264 5973ft 94kts
26-Aug-18 15:54 34.321675 -119.349787 264 5973ft 92kts
26-Aug-18 15:55 34.319307 -119.380679 264 5973ft 91kts
26-Aug-18 15:56 34.316952 -119.411312 264 5973ft 91kts
26-Aug-18 15:57 34.314588 -119.441917 264 5974ft 93kts
26-Aug-18 15:58 34.311870 -119.476451 264 5973ft 107kts
26-Aug-18 15:59 34.309508 -119.512776 279 5962ft 110kts
26-Aug-18 16:00 34.321735 -119.549408 291 5353ft 122kts
26-Aug-18 16:01 34.335358 -119.587407 291 4541ft 123kts
26-Aug-18 16:02 34.348730 -119.624697 290 3912ft 116kts
26-Aug-18 16:03 34.361154 -119.659422 290 3417ft 115kts
26-Aug-18 16:04 34.373884 -119.695017 290 2921ft 115kts
26-Aug-18 16:05 34.386905 -119.730534 298 2415ft 118kts
26-Aug-18 16:06 34.407346 -119.761827 310 1800ft 120kts
26-Aug-18 16:07 34.426133 -119.793142 281 1115ft 112kts
26-Aug-18 16:08 34.428213 -119.822493 267 451ft 55kts
26-Aug-18 16:09 34.427874 -119.838132 266 17ft 35kts
26-Aug-18 16:10 34.428666 -119.842019 350 17ft 0kts

Navigation Log

Ident Type
1. KEMT Airport
2. PDZ Navaid
3. TIFNI Fix
4. BAYJY Fix
5. ADAMM Fix
6. PIRRO Fix
7. ITSME Fix
8. ELMOO Fix
9. PURMS Fix
10. DARTS Fix
11. VNY Navaid
12. SESPE Fix
13. FIM Navaid
14. HENER Fix
15. DEANO Fix
16. KWANG Fix
17. KSBA Airport